sensor_id;sensor_type;location;lat;lon;timestamp;pressure;altitude;pressure_sealevel;temperature;humidity
61961;BME280;47923;42.506;24.192;2022-09-09T04:22:56;95817.41;;;11.54;86.50
61961;BME280;47923;42.506;24.192;2022-09-09T14:55:35;94940.78;;;22.37;40.99
61961;BME280;47923;42.506;24.192;2022-09-09T16:10:33;95519.03;;;23.77;56.62
61961;BME280;47923;42.506;24.192;2022-09-09T16:20:15;95262.81;;;21.49;57.12
61961;BME280;47923;42.506;24.192;2022-09-09T16:22:40;95520.28;;;23.08;57.51
61961;BME280;47923;42.506;24.192;2022-09-09T16:25:07;95492.75;;;22.79;61.06
61961;BME280;47923;42.506;24.192;2022-09-09T16:27:33;95449.00;;;22.40;60.12
61961;BME280;47923;42.506;24.192;2022-09-09T16:29:59;95505.00;;;22.62;61.07
61961;BME280;47923;42.506;24.192;2022-09-09T16:32:24;95508.41;;;22.53;60.43
61961;BME280;47923;42.506;24.192;2022-09-09T16:34:50;95502.84;;;22.41;62.37
61961;BME280;47923;42.506;24.192;2022-09-09T16:37:15;95223.13;;;20.40;61.90
61961;BME280;47923;42.506;24.192;2022-09-09T16:39:42;95502.28;;;22.17;62.91
61961;BME280;47923;42.506;24.192;2022-09-09T16:42:08;95248.13;;;20.26;63.07
61961;BME280;47923;42.506;24.192;2022-09-09T16:44:34;95504.28;;;21.84;63.16
61961;BME280;47923;42.506;24.192;2022-09-09T16:47:00;95457.69;;;21.44;62.98
61961;BME280;47923;42.506;24.192;2022-09-09T16:49:26;95086.09;;;18.92;63.79
61961;BME280;47923;42.506;24.192;2022-09-09T16:51:53;95271.72;;;20.03;62.44
61961;BME280;47923;42.506;24.192;2022-09-09T16:54:19;95134.03;;;19.00;63.92
61961;BME280;47923;42.506;24.192;2022-09-09T16:56:46;95000.53;;;18.05;64.25
61961;BME280;47923;42.506;24.192;2022-09-09T16:59:17;95204.34;;;19.26;65.12
61961;BME280;47923;42.506;24.192;2022-09-09T17:01:45;95273.72;;;19.63;63.57
61961;BME280;47923;42.506;24.192;2022-09-09T17:04:16;95194.91;;;19.08;64.20
61961;BME280;47923;42.506;24.192;2022-09-09T17:06:50;95085.81;;;18.19;65.74
61961;BME280;47923;42.506;24.192;2022-09-09T17:09:17;95386.31;;;20.12;66.70
61961;BME280;47923;42.506;24.192;2022-09-09T17:15:13;94860.56;;;16.15;67.57
61961;BME280;47923;42.506;24.192;2022-09-09T17:17:44;94848.78;;;15.91;68.30
61961;BME280;47923;42.506;24.192;2022-09-09T17:20:28;94887.28;;;16.27;68.37
61961;BME280;47923;42.506;24.192;2022-09-09T17:29:42;94696.16;;;14.62;67.74
61961;BME280;47923;42.506;24.192;2022-09-09T17:32:08;94829.19;;;15.73;67.90
61961;BME280;47923;42.506;24.192;2022-09-09T17:34:36;94865.19;;;15.88;68.99
61961;BME280;47923;42.506;24.192;2022-09-09T17:37:03;94919.97;;;15.97;68.22
61961;BME280;47923;42.506;24.192;2022-09-09T17:39:40;94854.38;;;15.81;68.12
61961;BME280;47923;42.506;24.192;2022-09-09T17:42:09;94620.47;;;14.12;68.28
61961;BME280;47923;42.506;24.192;2022-09-09T17:44:45;94675.97;;;14.59;68.26
61961;BME280;47923;42.506;24.192;2022-09-09T17:47:18;94908.09;;;15.77;68.83
61961;BME280;47923;42.506;24.192;2022-09-09T17:49:44;94820.22;;;15.31;68.35
61961;BME280;47923;42.506;24.192;2022-09-09T17:52:10;95063.16;;;16.80;68.25
61961;BME280;47923;42.506;24.192;2022-09-09T17:54:43;94741.44;;;14.24;68.55
61961;BME280;47923;42.506;24.192;2022-09-09T17:57:09;94842.63;;;15.05;69.37
61961;BME280;47923;42.506;24.192;2022-09-09T17:59:35;95549.94;;;19.45;70.16
61961;BME280;47923;42.506;24.192;2022-09-09T18:02:01;94733.09;;;13.93;71.08
61961;BME280;47923;42.506;24.192;2022-09-09T18:04:30;94828.50;;;14.72;70.60
61961;BME280;47923;42.506;24.192;2022-09-09T18:06:56;95053.69;;;16.13;69.99
61961;BME280;47923;42.506;24.192;2022-09-09T18:09:24;94900.16;;;15.03;69.65
61961;BME280;47923;42.506;24.192;2022-09-09T18:11:53;94869.28;;;14.72;71.33
61961;BME280;47923;42.506;24.192;2022-09-09T18:14:25;95577.03;;;19.39;71.38
61961;BME280;47923;42.506;24.192;2022-09-09T18:16:55;94856.06;;;14.74;70.21
61961;BME280;47923;42.506;24.192;2022-09-09T18:19:23;94612.59;;;12.96;70.97
61961;BME280;47923;42.506;24.192;2022-09-09T18:21:49;95146.53;;;16.37;69.53
61961;BME280;47923;42.506;24.192;2022-09-09T18:24:17;95055.66;;;15.64;70.12
61961;BME280;47923;42.506;24.192;2022-09-09T18:26:43;95042.25;;;15.84;71.72
61961;BME280;47923;42.506;24.192;2022-09-09T18:29:15;94836.81;;;14.44;71.65
61961;BME280;47923;42.506;24.192;2022-09-09T18:31:44;94892.97;;;14.72;71.78
61961;BME280;47923;42.506;24.192;2022-09-09T18:34:15;95235.72;;;16.88;71.82
61961;BME280;47923;42.506;24.192;2022-09-09T18:36:52;95122.38;;;15.94;72.80
61961;BME280;47923;42.506;24.192;2022-09-09T18:39:20;95601.28;;;19.07;74.00
61961;BME280;47923;42.506;24.192;2022-09-09T18:41:57;95099.16;;;15.71;72.66
61961;BME280;47923;42.506;24.192;2022-09-09T18:44:26;94707.53;;;12.78;74.38
61961;BME280;47923;42.506;24.192;2022-09-09T18:46:55;94759.41;;;12.94;72.83
61961;BME280;47923;42.506;24.192;2022-09-09T18:49:21;95587.28;;;18.67;74.60
61961;BME280;47923;42.506;24.192;2022-09-09T18:51:51;94775.66;;;13.02;75.29
61961;BME280;47923;42.506;24.192;2022-09-09T18:54:19;95223.41;;;16.17;75.70
61961;BME280;47923;42.506;24.192;2022-09-09T18:56:46;94722.63;;;12.83;75.68
61961;BME280;47923;42.506;24.192;2022-09-09T18:59:18;95150.56;;;15.55;76.22
61961;BME280;47923;42.506;24.192;2022-09-09T19:01:47;95114.56;;;15.30;75.77
61961;BME280;47923;42.506;24.192;2022-09-09T19:04:13;94901.94;;;13.60;75.06
61961;BME280;47923;42.506;24.192;2022-09-09T19:06:43;94824.47;;;13.23;76.20
61961;BME280;47923;42.506;24.192;2022-09-09T19:09:17;94900.38;;;13.55;75.47
61961;BME280;47923;42.506;24.192;2022-09-09T19:11:43;95266.25;;;16.13;75.32
61961;BME280;47923;42.506;24.192;2022-09-09T19:14:11;94723.03;;;12.53;75.95
61961;BME280;47923;42.506;24.192;2022-09-09T19:16:38;95235.19;;;15.96;76.38
61961;BME280;47923;42.506;24.192;2022-09-09T19:19:09;94903.84;;;13.70;76.60
61961;BME280;47923;42.506;24.192;2022-09-09T19:21:37;94868.63;;;13.27;76.86
61961;BME280;47923;42.506;24.192;2022-09-09T19:24:19;94845.38;;;13.26;78.18
61961;BME280;47923;42.506;24.192;2022-09-09T19:26:48;94869.00;;;13.29;78.77
61961;BME280;47923;42.506;24.192;2022-09-09T19:29:28;94906.59;;;13.41;79.17
61961;BME280;47923;42.506;24.192;2022-09-09T19:31:56;94862.81;;;13.11;78.10
61961;BME280;47923;42.506;24.192;2022-09-09T19:34:26;94979.06;;;13.80;78.26
61961;BME280;47923;42.506;24.192;2022-09-09T19:36:52;94848.88;;;13.23;77.89
61961;BME280;47923;42.506;24.192;2022-09-09T19:39:18;94835.69;;;13.18;76.54
61961;BME280;47923;42.506;24.192;2022-09-09T19:41:44;94927.91;;;13.53;76.24
61961;BME280;47923;42.506;24.192;2022-09-09T19:44:15;94839.16;;;13.40;76.36
61961;BME280;47923;42.506;24.192;2022-09-09T19:46:43;94857.34;;;13.57;77.09
61961;BME280;47923;42.506;24.192;2022-09-09T19:49:10;95027.38;;;14.71;76.75
61961;BME280;47923;42.506;24.192;2022-09-09T19:51:39;94754.38;;;12.89;77.64
61961;BME280;47923;42.506;24.192;2022-09-09T19:54:14;95155.25;;;15.58;78.14
61961;BME280;47923;42.506;24.192;2022-09-09T19:56:41;95428.31;;;17.37;78.53
61961;BME280;47923;42.506;24.192;2022-09-09T19:59:11;95075.84;;;14.93;76.86
61961;BME280;47923;42.506;24.192;2022-09-09T20:01:42;95070.47;;;14.69;78.00
61961;BME280;47923;42.506;24.192;2022-09-09T20:04:11;94822.09;;;13.14;77.99
61961;BME280;47923;42.506;24.192;2022-09-09T20:06:40;94778.00;;;12.67;78.54
61961;BME280;47923;42.506;24.192;2022-09-09T20:09:10;95287.34;;;16.02;79.18
61961;BME280;47923;42.506;24.192;2022-09-09T20:11:36;95023.25;;;14.05;79.83
61961;BME280;47923;42.506;24.192;2022-09-09T20:14:03;94850.03;;;12.86;79.25
61961;BME280;47923;42.506;24.192;2022-09-09T20:16:30;94978.66;;;13.92;80.21
61961;BME280;47923;42.506;24.192;2022-09-09T20:18:58;95275.00;;;15.80;79.49
61961;BME280;47923;42.506;24.192;2022-09-09T20:21:30;95033.69;;;14.21;79.01
61961;BME280;47923;42.506;24.192;2022-09-09T20:23:58;95519.22;;;17.34;79.64
61961;BME280;47923;42.506;24.192;2022-09-09T20:26:25;95168.31;;;14.93;79.75
61961;BME280;47923;42.506;24.192;2022-09-09T20:28:53;94774.13;;;12.40;79.26
61961;BME280;47923;42.506;24.192;2022-09-09T20:31:23;95546.09;;;17.43;79.59
61961;BME280;47923;42.506;24.192;2022-09-09T20:33:50;94828.28;;;12.33;80.41
61961;BME280;47923;42.506;24.192;2022-09-09T20:36:26;95550.38;;;17.40;81.13
61961;BME280;47923;42.506;24.192;2022-09-09T20:38:55;95555.09;;;17.36;80.66
61961;BME280;47923;42.506;24.192;2022-09-09T20:41:22;94923.22;;;13.04;78.19
61961;BME280;47923;42.506;24.192;2022-09-09T20:43:58;94736.16;;;12.01;78.43
61961;BME280;47923;42.506;24.192;2022-09-09T20:46:28;95451.00;;;16.61;80.72
61961;BME280;47923;42.506;24.192;2022-09-09T20:48:54;94678.38;;;11.32;80.98
61961;BME280;47923;42.506;24.192;2022-09-09T20:51:24;94907.28;;;12.60;80.33
61961;BME280;47923;42.506;24.192;2022-09-09T20:53:59;94841.06;;;12.39;80.87
61961;BME280;47923;42.506;24.192;2022-09-09T20:56:29;95231.66;;;14.87;81.81
61961;BME280;47923;42.506;24.192;2022-09-09T20:58:57;94743.34;;;11.50;81.62
61961;BME280;47923;42.506;24.192;2022-09-09T21:01:22;94860.75;;;12.18;82.85
61961;BME280;47923;42.506;24.192;2022-09-09T21:03:51;95167.22;;;14.13;83.80
61961;BME280;47923;42.506;24.192;2022-09-09T21:06:18;95557.34;;;16.65;83.16
61961;BME280;47923;42.506;24.192;2022-09-09T21:08:45;95177.69;;;14.18;82.75
61961;BME280;47923;42.506;24.192;2022-09-09T21:11:12;94883.63;;;12.28;81.38
61961;BME280;47923;42.506;24.192;2022-09-09T21:13:38;94866.94;;;12.19;81.83
61961;BME280;47923;42.506;24.192;2022-09-09T21:16:08;95031.78;;;13.36;82.38
61961;BME280;47923;42.506;24.192;2022-09-09T21:18:35;95546.81;;;16.77;83.07
61961;BME280;47923;42.506;24.192;2022-09-09T21:21:04;95365.28;;;15.46;82.30
61961;BME280;47923;42.506;24.192;2022-09-09T21:23:30;94902.28;;;12.72;81.05
61961;BME280;47923;42.506;24.192;2022-09-09T21:25:57;95566.16;;;17.08;81.90
61961;BME280;47923;42.506;24.192;2022-09-09T21:28:22;94701.16;;;11.35;81.21
61961;BME280;47923;42.506;24.192;2022-09-09T21:30:54;94845.25;;;12.05;80.34
61961;BME280;47923;42.506;24.192;2022-09-09T21:33:22;94834.06;;;12.24;79.65
61961;BME280;47923;42.506;24.192;2022-09-09T21:35:49;95057.78;;;13.91;78.50
61961;BME280;47923;42.506;24.192;2022-09-09T21:38:17;94819.75;;;12.24;78.68
61961;BME280;47923;42.506;24.192;2022-09-09T21:40:44;94875.97;;;12.84;78.33
61961;BME280;47923;42.506;24.192;2022-09-09T21:43:13;94908.53;;;13.02;77.82
61961;BME280;47923;42.506;24.192;2022-09-09T21:45:40;94774.50;;;12.21;77.10
61961;BME280;47923;42.506;24.192;2022-09-09T21:48:08;94829.88;;;12.59;77.71
61961;BME280;47923;42.506;24.192;2022-09-09T21:50:43;94869.75;;;12.83;78.68
61961;BME280;47923;42.506;24.192;2022-09-09T21:53:12;94888.75;;;12.97;79.02
61961;BME280;47923;42.506;24.192;2022-09-09T21:55:40;95150.50;;;14.68;79.51
61961;BME280;47923;42.506;24.192;2022-09-09T21:58:07;94853.09;;;12.53;78.50
61961;BME280;47923;42.506;24.192;2022-09-09T22:00:33;95052.34;;;14.05;78.07
61961;BME280;47923;42.506;24.192;2022-09-09T22:03:00;94904.66;;;13.10;77.17
61961;BME280;47923;42.506;24.192;2022-09-09T22:05:30;95169.16;;;14.58;76.84
61961;BME280;47923;42.506;24.192;2022-09-09T22:08:06;95091.91;;;14.24;77.26
61961;BME280;47923;42.506;24.192;2022-09-09T22:10:33;95125.69;;;14.55;79.61
61961;BME280;47923;42.506;24.192;2022-09-09T22:13:00;94900.38;;;12.91;79.06
61961;BME280;47923;42.506;24.192;2022-09-09T22:15:25;94906.59;;;13.02;79.41
61961;BME280;47923;42.506;24.192;2022-09-09T22:17:52;94847.28;;;12.51;79.99
61961;BME280;47923;42.506;24.192;2022-09-09T22:20:17;94737.63;;;11.70;80.15
61961;BME280;47923;42.506;24.192;2022-09-09T22:22:43;95162.56;;;14.42;80.08
61961;BME280;47923;42.506;24.192;2022-09-09T22:25:09;94664.72;;;10.97;80.13
61961;BME280;47923;42.506;24.192;2022-09-09T22:27:37;94825.50;;;12.01;81.12
61961;BME280;47923;42.506;24.192;2022-09-09T22:30:03;95281.00;;;15.07;81.40
61961;BME280;47923;42.506;24.192;2022-09-09T22:32:29;94859.25;;;12.28;81.24
61961;BME280;47923;42.506;24.192;2022-09-09T22:34:55;95277.50;;;15.03;81.99
61961;BME280;47923;42.506;24.192;2022-09-09T22:37:21;94645.22;;;10.59;81.33
61961;BME280;47923;42.506;24.192;2022-09-09T22:39:47;95301.59;;;15.08;81.89
61961;BME280;47923;42.506;24.192;2022-09-09T22:42:13;94804.94;;;11.82;81.09
61961;BME280;47923;42.506;24.192;2022-09-09T22:44:39;95386.28;;;15.74;80.46
61961;BME280;47923;42.506;24.192;2022-09-09T22:47:06;94744.53;;;11.63;82.22
61961;BME280;47923;42.506;24.192;2022-09-09T22:49:35;94815.47;;;12.08;82.77
61961;BME280;47923;42.506;24.192;2022-09-09T22:52:04;94613.13;;;10.47;82.67
61961;BME280;47923;42.506;24.192;2022-09-09T22:54:29;94787.09;;;11.74;82.65
61961;BME280;47923;42.506;24.192;2022-09-09T22:56:58;94865.34;;;12.11;82.95
61961;BME280;47923;42.506;24.192;2022-09-09T22:59:25;94743.59;;;11.20;82.21
61961;BME280;47923;42.506;24.192;2022-09-09T23:01:55;94846.75;;;11.99;83.73
61961;BME280;47923;42.506;24.192;2022-09-09T23:04:21;95078.28;;;13.24;84.28
61961;BME280;47923;42.506;24.192;2022-09-09T23:06:49;95275.56;;;14.78;84.33
61961;BME280;47923;42.506;24.192;2022-09-09T23:09:15;94976.25;;;12.84;84.73
61961;BME280;47923;42.506;24.192;2022-09-09T23:11:46;94722.19;;;10.90;83.22
61961;BME280;47923;42.506;24.192;2022-09-09T23:14:12;94667.97;;;10.58;82.85
61961;BME280;47923;42.506;24.192;2022-09-09T23:16:43;94815.94;;;11.41;84.01
61961;BME280;47923;42.506;24.192;2022-09-09T23:19:11;95047.56;;;12.98;83.68
61961;BME280;47923;42.506;24.192;2022-09-09T23:21:41;95208.31;;;14.00;83.84
61961;BME280;47923;42.506;24.192;2022-09-09T23:24:09;95041.38;;;12.94;82.59
61961;BME280;47923;42.506;24.192;2022-09-09T23:26:36;94770.50;;;10.99;83.13
61961;BME280;47923;42.506;24.192;2022-09-09T23:29:03;94994.75;;;12.50;84.15
61961;BME280;47923;42.506;24.192;2022-09-09T23:31:31;95000.16;;;12.50;84.01
61961;BME280;47923;42.506;24.192;2022-09-09T23:33:59;95269.28;;;14.31;85.00
61961;BME280;47923;42.506;24.192;2022-09-09T23:36:28;94601.06;;;9.79;84.97
61961;BME280;47923;42.506;24.192;2022-09-09T23:39:04;94976.84;;;12.31;86.15
61961;BME280;47923;42.506;24.192;2022-09-09T23:41:31;94818.47;;;11.16;85.83
61961;BME280;47923;42.506;24.192;2022-09-09T23:44:00;94801.78;;;11.00;85.68
61961;BME280;47923;42.506;24.192;2022-09-09T23:46:33;94543.38;;;9.43;84.79
61961;BME280;47923;42.506;24.192;2022-09-09T23:49:02;95243.63;;;14.07;84.97
61961;BME280;47923;42.506;24.192;2022-09-09T23:51:32;94790.22;;;11.03;84.48
61961;BME280;47923;42.506;24.192;2022-09-09T23:54:00;94874.06;;;11.72;83.68
61961;BME280;47923;42.506;24.192;2022-09-09T23:56:34;95336.84;;;14.26;85.18
61961;BME280;47923;42.506;24.192;2022-09-09T23:59:04;94743.44;;;10.88;83.54
